Time;durP1;ratioP1;P1;durP2;ratioP2;P2;SDS_P1;SDS_P2;PMS_P1;PMS_P2;Temp;Humidity;BMP_temperature;BMP_pressure;BME280_temperature;BME280_humidity;BME280_pressure;Samples;Min_cycle;Max_cycle;Signal;HPM_P1;HPM_P2
2024/03/09 00:00:44;;;;;;;1.50;1.20;;;6.50;98.20;;;;;;6157002;23;20448;-84
2024/03/09 00:03:11;;;;;;;2.77;2.57;;;6.50;98.20;;;;;;6167254;23;20467;-83
2024/03/09 00:05:40;;;;;;;1.50;1.20;;;6.60;98.20;;;;;;6156629;23;20965;-82
2024/03/09 00:08:08;;;;;;;1.70;1.60;;;6.60;98.20;;;;;;6164829;23;20451;-83
2024/03/09 00:10:35;;;;;;;1.50;1.20;;;6.70;98.20;;;;;;6157533;23;20544;-84
2024/03/09 00:13:04;;;;;;;1.60;1.50;;;6.70;98.20;;;;;;6166466;23;20963;-84
2024/03/09 00:15:35;;;;;;;1.50;1.23;;;6.70;98.20;;;;;;6164956;23;20421;-82
2024/03/09 00:18:02;;;;;;;1.50;1.20;;;6.80;98.20;;;;;;6163816;23;20471;-81
2024/03/09 00:20:34;;;;;;;1.50;1.20;;;6.80;98.20;;;;;;6166682;23;20421;-82
2024/03/09 00:23:02;;;;;;;1.50;1.20;;;6.90;98.20;;;;;;6162789;23;20835;-82
2024/03/09 00:25:29;;;;;;;1.50;1.30;;;6.90;98.20;;;;;;6164786;23;20508;-82
2024/03/09 00:27:57;;;;;;;1.60;1.50;;;6.90;98.20;;;;;;6164450;23;20455;-83
2024/03/09 00:30:29;;;;;;;1.60;1.40;;;6.90;98.20;;;;;;6156608;23;20484;-83
2024/03/09 00:32:58;;;;;;;1.50;1.30;;;6.90;98.20;;;;;;6166442;23;20458;-83
2024/03/09 00:35:27;;;;;;;2.23;2.13;;;6.90;98.20;;;;;;6166169;23;20483;-84
2024/03/09 00:38:03;;;;;;;1.57;1.30;;;6.90;98.20;;;;;;6166348;23;20444;-82
2024/03/09 00:40:30;;;;;;;1.50;1.30;;;6.90;98.20;;;;;;6166195;23;20512;-84
2024/03/09 00:42:59;;;;;;;1.50;1.30;;;6.90;98.20;;;;;;6164899;23;20486;-85
2024/03/09 00:45:28;;;;;;;1.50;1.20;;;6.90;98.20;;;;;;6164755;23;20786;-83
2024/03/09 00:47:55;;;;;;;1.50;1.20;;;6.90;98.20;;;;;;6162676;23;20451;-84
2024/03/09 00:52:50;;;;;;;2.07;1.97;;;6.90;98.20;;;;;;6135639;23;20482;-80
2024/03/09 00:55:17;;;;;;;1.50;1.20;;;6.80;98.20;;;;;;6128360;23;21158;-81
2024/03/09 00:57:45;;;;;;;1.50;1.30;;;6.80;98.20;;;;;;6137814;23;20454;-82
2024/03/09 01:00:15;;;;;;;1.50;1.30;;;6.80;98.20;;;;;;6127913;23;20469;-81
2024/03/09 01:02:45;;;;;;;1.50;1.27;;;6.80;98.20;;;;;;6135945;23;20452;-81
2024/03/09 01:05:15;;;;;;;1.50;1.20;;;6.80;98.20;;;;;;6128323;23;20436;-81
2024/03/09 01:07:42;;;;;;;1.50;1.30;;;6.70;98.20;;;;;;6135876;23;20503;-82
2024/03/09 01:10:10;;;;;;;1.60;1.37;;;6.70;98.20;;;;;;6127234;23;20817;-82
2024/03/09 01:12:37;;;;;;;1.50;1.20;;;6.70;98.20;;;;;;6134255;23;20489;-83
2024/03/09 01:15:06;;;;;;;1.50;1.30;;;6.70;98.20;;;;;;6129768;23;20426;-84
2024/03/09 01:17:35;;;;;;;1.50;1.20;;;6.70;98.20;;;;;;6135607;23;20676;-83
2024/03/09 01:20:06;;;;;;;1.50;1.30;;;6.70;98.20;;;;;;6130380;23;20453;-84
2024/03/09 01:22:33;;;;;;;1.50;1.20;;;6.60;98.20;;;;;;6138233;23;20453;-83
2024/03/09 01:25:00;;;;;;;1.50;1.30;;;6.60;98.20;;;;;;6131351;23;20421;-82
2024/03/09 01:27:27;;;;;;;1.50;1.33;;;6.70;98.20;;;;;;6133821;23;20702;-82
2024/03/09 01:29:58;;;;;;;1.50;1.30;;;6.70;98.20;;;;;;6132547;23;20422;-84
2024/03/09 01:32:26;;;;;;;1.50;1.30;;;6.70;98.20;;;;;;6135286;23;20457;-83
2024/03/09 01:34:53;;;;;;;1.50;1.20;;;6.70;98.20;;;;;;6132951;23;20425;-81
2024/03/09 01:37:22;;;;;;;1.50;1.30;;;6.70;98.20;;;;;;6132381;23;20500;-84
2024/03/09 01:39:48;;;;;;;1.53;1.40;;;6.70;98.20;;;;;;6134299;23;20426;-83
2024/03/09 01:42:18;;;;;;;1.60;1.40;;;6.70;98.20;;;;;;6132042;23;20503;-82
2024/03/09 01:44:45;;;;;;;1.50;1.33;;;6.70;98.20;;;;;;6135615;23;20662;-84
2024/03/09 01:47:12;;;;;;;1.50;1.30;;;6.70;98.20;;;;;;6131091;23;20524;-84
2024/03/09 01:49:39;;;;;;;1.87;1.70;;;6.70;98.20;;;;;;6134957;23;20497;-84
2024/03/09 01:52:08;;;;;;;1.50;1.30;;;6.70;98.20;;;;;;6128617;23;21017;-85
2024/03/09 01:54:37;;;;;;;1.97;1.77;;;6.70;98.20;;;;;;6137878;23;20426;-82
2024/03/09 01:57:05;;;;;;;1.50;1.30;;;6.70;98.20;;;;;;6130056;23;20512;-84
2024/03/09 01:59:32;;;;;;;2.73;2.50;;;6.70;98.20;;;;;;6136477;23;20422;-82
2024/03/09 02:02:01;;;;;;;1.50;1.20;;;6.70;98.20;;;;;;6127610;23;20541;-83
2024/03/09 02:04:29;;;;;;;1.50;1.20;;;6.60;98.20;;;;;;6137577;23;20473;-83
2024/03/09 02:06:56;;;;;;;1.50;1.20;;;6.70;98.20;;;;;;6126736;23;20456;-82
2024/03/09 02:09:25;;;;;;;1.50;1.20;;;6.70;98.20;;;;;;6138244;23;20465;-81
2024/03/09 02:11:53;;;;;;;1.50;1.30;;;6.70;98.20;;;;;;6125788;23;20456;-81
2024/03/09 02:14:21;;;;;;;1.50;1.30;;;6.70;98.20;;;;;;6136436;23;20509;-84
2024/03/09 02:16:49;;;;;;;1.50;1.27;;;6.70;98.20;;;;;;6122290;23;20472;-80
2024/03/09 02:19:17;;;;;;;2.27;2.03;;;6.70;98.20;;;;;;6135382;23;20505;-77
2024/03/09 02:21:45;;;;;;;1.50;1.30;;;6.80;98.20;;;;;;6120833;23;20475;-79
2024/03/09 02:24:14;;;;;;;1.63;1.47;;;6.80;98.20;;;;;;6137744;23;20429;-80
2024/03/09 02:26:42;;;;;;;1.50;1.23;;;6.80;98.20;;;;;;6123159;23;20455;-79
2024/03/09 02:29:13;;;;;;;1.50;1.20;;;6.80;98.20;;;;;;6136408;23;20418;-80
2024/03/09 02:31:41;;;;;;;3.13;2.83;;;6.80;98.20;;;;;;6120217;23;20520;-79
2024/03/09 02:34:07;;;;;;;1.50;1.30;;;6.80;98.20;;;;;;6148418;23;20413;-80
2024/03/09 02:36:38;;;;;;;1.50;1.30;;;6.80;98.20;;;;;;6122617;23;20448;-80
2024/03/09 02:39:07;;;;;;;1.50;1.30;;;6.80;98.20;;;;;;6138179;23;20405;-80
2024/03/09 02:41:34;;;;;;;1.77;1.67;;;6.80;98.20;;;;;;6118763;23;20457;-79
2024/03/09 02:44:05;;;;;;;1.50;1.20;;;6.80;98.20;;;;;;6133375;23;20428;-82
2024/03/09 02:46:32;;;;;;;1.50;1.30;;;6.90;98.20;;;;;;6120752;23;20454;-81
2024/03/09 02:48:59;;;;;;;1.50;1.30;;;6.90;98.20;;;;;;6140844;23;20754;-79
2024/03/09 02:51:26;;;;;;;1.50;1.20;;;6.90;98.20;;;;;;6117527;23;20547;-83
2024/03/09 02:53:53;;;;;;;1.50;1.20;;;6.80;98.20;;;;;;6146379;23;20870;-81
2024/03/09 02:56:21;;;;;;;1.60;1.50;;;6.90;98.20;;;;;;6120085;23;20508;-80
2024/03/09 02:58:49;;;;;;;1.50;1.30;;;6.90;98.20;;;;;;6145580;23;20904;-81
2024/03/09 03:01:18;;;;;;;1.50;1.20;;;6.90;98.20;;;;;;6119233;23;20509;-81
2024/03/09 03:03:46;;;;;;;1.50;1.20;;;6.90;98.20;;;;;;6146211;23;20429;-79
2024/03/09 03:06:14;;;;;;;3.73;3.43;;;6.90;98.20;;;;;;6119491;23;20444;-81
2024/03/09 03:08:41;;;;;;;1.53;1.30;;;6.90;98.20;;;;;;6146396;23;20554;-80
2024/03/09 03:11:08;;;;;;;2.70;2.50;;;6.80;98.20;;;;;;6119629;23;20817;-82
2024/03/09 03:13:35;;;;;;;1.50;1.20;;;6.80;98.20;;;;;;6147782;23;20418;-80
2024/03/09 03:16:01;;;;;;;1.50;1.30;;;6.80;98.20;;;;;;6116897;23;20517;-80
2024/03/09 03:18:30;;;;;;;1.50;1.20;;;6.80;98.20;;;;;;6147304;23;20432;-81
2024/03/09 03:20:56;;;;;;;1.50;1.30;;;6.80;98.20;;;;;;6114663;23;20451;-81
2024/03/09 03:23:23;;;;;;;1.50;1.20;;;6.80;98.20;;;;;;6151497;23;20503;-80
2024/03/09 03:25:50;;;;;;;1.60;1.50;;;6.80;98.20;;;;;;6115548;23;20433;-83
2024/03/09 03:28:17;;;;;;;6.00;5.63;;;6.80;98.20;;;;;;6151495;23;20501;-82
2024/03/09 03:30:45;;;;;;;1.50;1.30;;;6.80;98.20;;;;;;6127533;23;20445;-82
2024/03/09 03:33:11;;;;;;;1.50;1.30;;;6.80;98.20;;;;;;6136179;23;20460;-81
2024/03/09 03:35:39;;;;;;;1.53;1.30;;;6.80;98.20;;;;;;6127996;23;20923;-81
2024/03/09 03:38:07;;;;;;;1.50;1.30;;;6.80;98.20;;;;;;6139789;23;20515;-81
2024/03/09 03:40:33;;;;;;;1.50;1.20;;;6.80;98.20;;;;;;6128501;23;20831;-82
2024/03/09 03:43:02;;;;;;;1.50;1.30;;;6.80;98.20;;;;;;6138458;23;20539;-83
2024/03/09 03:45:29;;;;;;;1.50;1.20;;;6.80;98.20;;;;;;6128435;23;20445;-83
2024/03/09 03:47:56;;;;;;;1.50;1.40;;;6.70;98.20;;;;;;6138158;23;20759;-83
2024/03/09 03:50:24;;;;;;;1.50;1.30;;;6.70;98.20;;;;;;6128242;23;20793;-81
2024/03/09 03:52:52;;;;;;;1.50;1.30;;;6.70;98.20;;;;;;6137289;23;20472;-82
2024/03/09 03:55:22;;;;;;;1.50;1.30;;;6.70;98.20;;;;;;6127830;23;20413;-80
2024/03/09 03:57:50;;;;;;;1.50;1.20;;;6.70;98.20;;;;;;6136813;23;20496;-81
2024/03/09 04:00:19;;;;;;;1.60;1.50;;;6.70;98.20;;;;;;6137483;23;21045;-82
2024/03/09 04:02:47;;;;;;;1.50;1.30;;;6.70;98.20;;;;;;6138723;23;20449;-81
2024/03/09 04:05:20;;;;;;;1.50;1.20;;;6.70;98.20;;;;;;6134747;23;20422;-80
2024/03/09 04:07:48;;;;;;;1.53;1.30;;;6.70;98.20;;;;;;6133450;23;20455;-80
2024/03/09 04:10:18;;;;;;;1.50;1.20;;;6.70;98.20;;;;;;6127848;23;20469;-82
2024/03/09 04:12:45;;;;;;;1.57;1.30;;;6.70;98.20;;;;;;6138604;23;20535;-80
2024/03/09 04:15:13;;;;;;;1.70;1.60;;;6.70;98.20;;;;;;6126478;23;20476;-79
2024/03/09 04:17:42;;;;;;;1.53;1.20;;;6.70;98.20;;;;;;6132732;23;20479;-82
2024/03/09 04:20:11;;;;;;;1.50;1.20;;;6.70;98.20;;;;;;6128916;23;20424;-81
2024/03/09 04:22:38;;;;;;;1.50;1.40;;;6.70;98.20;;;;;;6136226;23;20837;-80
2024/03/09 04:25:08;;;;;;;1.60;1.50;;;6.70;98.20;;;;;;6129605;23;20452;-81
2024/03/09 04:27:38;;;;;;;1.60;1.40;;;6.70;98.20;;;;;;6133183;23;20456;-81
2024/03/09 04:30:06;;;;;;;1.50;1.23;;;6.70;98.20;;;;;;6129056;23;20656;-82
2024/03/09 04:32:34;;;;;;;3.77;3.50;;;6.70;98.20;;;;;;6133754;23;20470;-81
2024/03/09 04:35:01;;;;;;;1.50;1.20;;;6.70;98.20;;;;;;6128557;23;20512;-79
2024/03/09 04:37:28;;;;;;;1.50;1.30;;;6.70;98.20;;;;;;6129964;23;20499;-77
2024/03/09 04:39:58;;;;;;;2.93;2.73;;;6.70;98.20;;;;;;6127244;23;20468;-79
2024/03/09 04:42:25;;;;;;;1.50;1.30;;;6.70;98.20;;;;;;6127073;23;20540;-78
2024/03/09 04:44:54;;;;;;;1.50;1.20;;;6.60;98.20;;;;;;6131479;23;20422;-80
2024/03/09 04:47:22;;;;;;;1.50;1.20;;;6.60;98.20;;;;;;6131662;23;20445;-79
2024/03/09 04:49:49;;;;;;;1.50;1.20;;;6.60;98.20;;;;;;6131730;23;20418;-80
2024/03/09 04:52:16;;;;;;;1.50;1.20;;;6.60;98.20;;;;;;6127845;23;20457;-80
2024/03/09 04:54:43;;;;;;;1.50;1.30;;;6.60;98.20;;;;;;6133257;23;20432;-80
2024/03/09 04:57:14;;;;;;;1.50;1.20;;;6.60;98.20;;;;;;6128997;23;20445;-79
2024/03/09 04:59:42;;;;;;;1.50;1.20;;;6.60;98.20;;;;;;6131793;23;20773;-78
2024/03/09 05:02:10;;;;;;;2.87;2.07;;;6.60;98.20;;;;;;6126336;23;20452;-78
2024/03/09 05:04:37;;;;;;;1.50;1.30;;;6.60;98.20;;;;;;6131361;23;20422;-80
2024/03/09 05:07:04;;;;;;;1.70;1.60;;;6.60;98.20;;;;;;6126011;23;20853;-79
2024/03/09 05:09:31;;;;;;;1.50;1.30;;;6.60;98.20;;;;;;6135634;23;20453;-79
2024/03/09 05:11:58;;;;;;;1.50;1.20;;;6.60;98.20;;;;;;6122396;23;20452;-79
2024/03/09 05:14:25;;;;;;;1.50;1.20;;;6.60;98.20;;;;;;6132741;23;20432;-79
2024/03/09 05:16:52;;;;;;;1.50;1.20;;;6.60;98.20;;;;;;6122810;23;20458;-79
2024/03/09 05:19:20;;;;;;;1.50;1.20;;;6.60;98.20;;;;;;6132697;23;20497;-80
2024/03/09 05:21:47;;;;;;;1.50;1.20;;;6.60;98.20;;;;;;6123652;23;20456;-80
2024/03/09 05:24:14;;;;;;;1.50;1.20;;;6.60;98.20;;;;;;6134677;23;20931;-80
2024/03/09 05:26:42;;;;;;;1.50;1.30;;;6.60;98.20;;;;;;6118333;23;20495;-80
2024/03/09 05:29:11;;;;;;;1.50;1.20;;;6.60;98.20;;;;;;6135832;23;20780;-81
2024/03/09 05:31:39;;;;;;;1.50;1.30;;;6.60;98.20;;;;;;6117763;23;20452;-80
2024/03/09 05:34:07;;;;;;;1.50;1.30;;;6.60;98.20;;;;;;6135086;23;20512;-81
2024/03/09 05:36:35;;;;;;;1.50;1.20;;;6.60;98.20;;;;;;6119612;23;20540;-80
2024/03/09 05:39:05;;;;;;;4.03;2.07;;;6.60;98.20;;;;;;6138172;23;20414;-81
2024/03/09 05:41:32;;;;;;;2.20;2.03;;;6.60;98.20;;;;;;6118075;23;20448;-79
2024/03/09 05:43:59;;;;;;;1.60;1.40;;;6.60;98.20;;;;;;6139933;23;20449;-80
2024/03/09 05:46:27;;;;;;;1.50;1.20;;;6.60;98.20;;;;;;6115447;23;20445;-80
2024/03/09 05:48:55;;;;;;;1.50;1.17;;;6.60;98.20;;;;;;6141253;23;20789;-79
2024/03/09 05:51:22;;;;;;;1.60;1.50;;;6.60;98.20;;;;;;6114692;23;20535;-79
2024/03/09 05:53:50;;;;;;;1.60;1.40;;;6.60;98.20;;;;;;6139481;23;20444;-79
2024/03/09 05:56:17;;;;;;;1.50;1.30;;;6.60;98.20;;;;;;6112377;23;20503;-80
2024/03/09 05:58:43;;;;;;;1.50;1.20;;;6.60;98.20;;;;;;6140110;23;20417;-79
2024/03/09 06:01:10;;;;;;;1.60;1.40;;;6.60;98.20;;;;;;6111434;23;20459;-81
2024/03/09 06:03:41;;;;;;;1.50;1.20;;;6.60;98.20;;;;;;6143172;23;20424;-80
2024/03/09 06:06:08;;;;;;;1.50;1.30;;;6.60;98.20;;;;;;6112717;23;20433;-80
2024/03/09 06:08:36;;;;;;;1.50;1.20;;;6.60;98.20;;;;;;6141722;23;20446;-80
2024/03/09 06:11:06;;;;;;;1.50;1.20;;;6.60;98.20;;;;;;6112905;23;20446;-80
2024/03/09 06:13:33;;;;;;;4.47;4.07;;;6.60;98.20;;;;;;6142462;23;20402;-81
2024/03/09 06:16:00;;;;;;;1.50;1.20;;;6.60;98.20;;;;;;6111339;23;20421;-81
2024/03/09 06:18:27;;;;;;;2.23;2.03;;;6.60;98.20;;;;;;6145482;23;20442;-80
2024/03/09 06:20:55;;;;;;;1.50;1.20;;;6.60;98.20;;;;;;6111813;23;20465;-79
2024/03/09 06:23:22;;;;;;;1.50;1.20;;;6.70;98.20;;;;;;6148771;23;20734;-80
2024/03/09 06:25:49;;;;;;;1.50;1.23;;;6.70;98.20;;;;;;6113334;23;20432;-80
2024/03/09 06:28:17;;;;;;;1.50;1.20;;;6.70;98.20;;;;;;6149518;23;20456;-79
2024/03/09 06:30:45;;;;;;;1.50;1.20;;;6.70;98.20;;;;;;6126710;23;20452;-76
2024/03/09 06:33:12;;;;;;;2.80;2.17;;;6.70;98.20;;;;;;6109403;23;20433;-79
2024/03/09 06:35:40;;;;;;;1.70;1.53;;;6.80;98.20;;;;;;6125951;23;20418;-80
2024/03/09 06:38:09;;;;;;;1.50;1.20;;;6.80;98.20;;;;;;6135079;23;20512;-79
2024/03/09 06:40:39;;;;;;;1.50;1.20;;;6.80;98.20;;;;;;6124051;23;20433;-77
2024/03/09 06:43:07;;;;;;;1.50;1.20;;;6.80;98.20;;;;;;6134306;23;20445;-82
2024/03/09 06:45:36;;;;;;;1.60;1.50;;;6.80;98.20;;;;;;6127166;23;20954;-77
2024/03/09 06:48:03;;;;;;;1.50;1.30;;;6.70;98.20;;;;;;6132628;23;20455;-80
2024/03/09 06:50:32;;;;;;;1.60;1.50;;;6.80;98.20;;;;;;6129334;23;20441;-79
2024/03/09 06:53:00;;;;;;;1.60;1.40;;;6.70;98.20;;;;;;6136639;23;20448;-77
2024/03/09 06:55:29;;;;;;;2.27;2.07;;;6.70;98.20;;;;;;6154828;23;20491;-83
2024/03/09 06:57:56;;;;;;;1.50;1.20;;;6.70;98.20;;;;;;6193728;23;20951;-82
2024/03/09 07:00:28;;;;;;;1.50;1.30;;;6.70;98.20;;;;;;6188801;23;20412;-81
2024/03/09 07:03:01;;;;;;;1.50;1.20;;;6.80;98.20;;;;;;6197197;23;20443;-83
2024/03/09 07:05:28;;;;;;;1.80;1.57;;;6.70;98.20;;;;;;6196185;23;20439;-82
2024/03/09 07:08:01;;;;;;;1.50;1.20;;;6.80;98.20;;;;;;6194388;23;20482;-82
2024/03/09 07:10:44;;;;;;;1.50;1.20;;;6.80;98.20;;;;;;6201484;23;20416;-84
2024/03/09 07:13:11;;;;;;;1.50;1.20;;;6.90;98.20;;;;;;6194662;23;20447;-83
2024/03/09 07:15:38;;;;;;;1.50;1.20;;;7.00;98.20;;;;;;6190706;23;21254;-85
2024/03/09 07:18:07;;;;;;;1.50;1.30;;;7.10;98.20;;;;;;6199313;23;20443;-84
2024/03/09 07:20:40;;;;;;;1.50;1.20;;;7.30;98.20;;;;;;6192240;23;20420;-84
2024/03/09 07:23:08;;;;;;;2.27;2.13;;;7.40;98.20;;;;;;6194995;23;20453;-82
2024/03/09 07:25:35;;;;;;;1.50;1.17;;;7.50;98.20;;;;;;6191153;23;20443;-84
2024/03/09 07:28:02;;;;;;;1.50;1.20;;;7.60;98.20;;;;;;6199140;23;20442;-84
2024/03/09 07:30:32;;;;;;;1.50;1.30;;;7.70;98.20;;;;;;6194489;23;20450;-86
2024/03/09 07:32:59;;;;;;;2.07;1.87;;;7.80;98.20;;;;;;6199753;23;21070;-82
2024/03/09 07:35:33;;;;;;;1.57;1.23;;;7.90;98.20;;;;;;6189567;23;20503;-86
2024/03/09 07:38:02;;;;;;;1.50;1.30;;;8.00;98.20;;;;;;6201434;23;20450;-83
2024/03/09 07:40:31;;;;;;;1.50;1.20;;;8.10;98.20;;;;;;6192413;23;20751;-85
2024/03/09 07:42:58;;;;;;;1.50;1.20;;;8.10;98.20;;;;;;6196385;23;20443;-83
2024/03/09 07:45:25;;;;;;;1.50;1.20;;;8.10;98.20;;;;;;6199044;23;20494;-81
2024/03/09 07:47:58;;;;;;;1.50;1.30;;;8.20;98.20;;;;;;6196907;23;20545;-83
2024/03/09 07:50:27;;;;;;;1.50;1.20;;;8.30;98.20;;;;;;6198857;23;20420;-83
2024/03/09 07:52:58;;;;;;;5.23;3.63;;;8.40;98.20;;;;;;6196873;23;20526;-83
2024/03/09 07:55:58;;;;;;;1.50;1.20;;;8.50;98.20;;;;;;6187327;23;20948;-82
2024/03/09 07:58:28;;;;;;;2.07;1.87;;;8.60;98.20;;;;;;6174507;23;20467;-84
2024/03/09 08:00:55;;;;;;;1.50;1.10;;;8.50;98.20;;;;;;6188379;23;20762;-83
2024/03/09 08:03:25;;;;;;;1.50;1.10;;;8.60;98.20;;;;;;6224693;23;20414;-83
2024/03/09 08:05:53;;;;;;;1.50;1.20;;;8.70;98.20;;;;;;6181175;23;20444;-83
2024/03/09 08:08:21;;;;;;;1.60;1.40;;;8.80;98.20;;;;;;6206357;23;20498;-82
2024/03/09 08:10:52;;;;;;;1.50;1.20;;;8.80;97.80;;;;;;6181441;23;20419;-84
2024/03/09 08:13:19;;;;;;;1.60;1.50;;;9.00;98.20;;;;;;6209254;23;20405;-84
2024/03/09 08:15:46;;;;;;;1.60;1.40;;;9.00;98.00;;;;;;6186625;23;21038;-84
2024/03/09 08:18:13;;;;;;;4.33;2.70;;;9.20;97.70;;;;;;6212868;23;20488;-83
2024/03/09 08:20:40;;;;;;;1.50;1.10;;;9.30;97.70;;;;;;6188089;23;20951;-85
2024/03/09 08:23:08;;;;;;;1.60;1.50;;;9.40;96.80;;;;;;6198159;23;20455;-82
2024/03/09 08:25:36;;;;;;;2.47;2.27;;;9.40;96.60;;;;;;6190251;23;21062;-84
2024/03/09 08:28:03;;;;;;;4.03;3.73;;;9.50;96.40;;;;;;6196584;23;20473;-82
2024/03/09 08:30:34;;;;;;;3.03;1.70;;;9.50;95.90;;;;;;6189703;23;20907;-84
2024/03/09 08:33:01;;;;;;;1.50;1.10;;;9.50;95.50;;;;;;6194403;23;20471;-82
2024/03/09 08:35:31;;;;;;;1.50;1.10;;;9.50;95.40;;;;;;6190402;23;20436;-85
2024/03/09 08:38:01;;;;;;;1.50;1.20;;;9.60;95.50;;;;;;6202715;23;20442;-85
2024/03/09 08:40:30;;;;;;;1.50;1.10;;;9.70;95.70;;;;;;6191716;23;20426;-84
2024/03/09 08:42:58;;;;;;;2.73;2.47;;;9.70;95.10;;;;;;6204145;23;20447;-87
2024/03/09 08:45:28;;;;;;;1.50;1.10;;;9.70;95.50;;;;;;6194502;23;20439;-84
2024/03/09 08:47:56;;;;;;;1.50;1.10;;;9.80;95.20;;;;;;6202433;23;20979;-84
2024/03/09 08:50:26;;;;;;;1.50;1.10;;;10.00;95.40;;;;;;6194535;23;20734;-85
2024/03/09 08:52:59;;;;;;;2.37;2.17;;;10.20;94.90;;;;;;6205680;23;20455;-84
2024/03/09 08:55:27;;;;;;;1.50;1.00;;;10.30;94.30;;;;;;6202808;23;20463;-83
2024/03/09 08:57:55;;;;;;;1.50;1.10;;;10.50;94.30;;;;;;6201265;23;20439;-85
2024/03/09 09:00:25;;;;;;;2.57;2.37;;;10.70;93.50;;;;;;6201860;23;20444;-84
2024/03/09 09:02:53;;;;;;;1.50;1.10;;;10.80;92.90;;;;;;6200714;23;20855;-83
2024/03/09 09:05:21;;;;;;;1.50;1.13;;;10.80;92.60;;;;;;6191636;23;20447;-85
2024/03/09 09:07:48;;;;;;;1.50;1.10;;;11.00;92.90;;;;;;6199451;23;20963;-84
2024/03/09 09:10:16;;;;;;;1.50;1.20;;;11.00;92.00;;;;;;6190866;23;20456;-83
2024/03/09 09:12:45;;;;;;;1.50;1.00;;;11.00;91.70;;;;;;6201601;23;20840;-83
2024/03/09 09:15:16;;;;;;;1.50;1.00;;;11.10;91.60;;;;;;6186272;23;20483;-84
2024/03/09 09:20:30;;;;;;;1.50;1.10;;;11.20;90.90;;;;;;6186758;23;20972;-83
2024/03/09 09:23:06;;;;;;;1.50;1.10;;;11.30;91.40;;;;;;6195974;23;20710;-83
2024/03/09 09:25:38;;;;;;;1.50;1.00;;;11.40;90.90;;;;;;6199510;23;20494;-84
2024/03/09 09:28:09;;;;;;;1.50;1.20;;;11.40;90.70;;;;;;6194146;23;20443;-83
2024/03/09 09:30:37;;;;;;;1.50;1.00;;;11.40;90.60;;;;;;6187933;23;20424;-83
2024/03/09 09:33:06;;;;;;;1.60;1.30;;;11.50;91.20;;;;;;6199589;23;20476;-84
2024/03/09 09:35:46;;;;;;;1.50;1.00;;;11.60;90.80;;;;;;6200876;23;20708;-83
2024/03/09 09:38:37;;;;;;;1.50;1.00;;;11.70;90.20;;;;;;6123842;23;20469;-84
2024/03/09 09:41:16;;;;;;;1.50;1.00;;;11.80;89.70;;;;;;6140612;23;20659;-84
2024/03/09 09:43:43;;;;;;;1.50;1.00;;;11.80;89.90;;;;;;6218256;23;20419;-84
2024/03/09 09:46:33;;;;;;;1.90;1.37;;;12.00;89.60;;;;;;6180659;23;20453;-83
2024/03/09 09:49:01;;;;;;;2.63;2.43;;;12.10;89.30;;;;;;6215167;23;20467;-85
2024/03/09 09:51:33;;;;;;;1.50;1.10;;;12.20;89.00;;;;;;6191274;23;20453;-83
2024/03/09 09:54:05;;;;;;;1.50;1.10;;;12.30;89.30;;;;;;6215397;23;20415;-84
2024/03/09 10:03:36;;;;;;;1.50;1.00;;;12.60;88.20;;;;;;5906735;23;20544;-85
2024/03/09 10:46:21;;;;;;;1.50;1.10;;;14.20;83.50;;;;;;5926827;23;21032;-83
2024/03/09 10:48:51;;;;;;;7.63;2.30;;;14.40;83.60;;;;;;6111305;23;20481;-81
2024/03/09 10:51:25;;;;;;;1.50;0.90;;;14.60;83.50;;;;;;6150158;23;20448;-81
2024/03/09 10:54:06;;;;;;;1.50;1.00;;;14.90;82.90;;;;;;6156065;23;20722;-81
2024/03/09 10:56:33;;;;;;;1.60;1.30;;;14.90;82.10;;;;;;6138680;23;20459;-83
2024/03/09 10:59:04;;;;;;;1.60;1.20;;;14.90;82.30;;;;;;6154261;23;20536;-82
2024/03/09 11:01:33;;;;;;;1.47;0.90;;;14.80;82.30;;;;;;6143329;23;20487;-81
2024/03/09 11:04:00;;;;;;;1.50;1.00;;;14.80;82.30;;;;;;6155121;23;20420;-82
2024/03/09 11:06:35;;;;;;;1.70;1.47;;;14.80;82.70;;;;;;6148342;23;20462;-84
2024/03/09 11:09:10;;;;;;;1.50;1.00;;;15.00;81.90;;;;;;6162934;23;20530;-82
2024/03/09 11:11:41;;;;;;;1.50;1.00;;;15.00;81.90;;;;;;6138756;23;21116;-83
2024/03/09 11:14:15;;;;;;;1.50;1.10;;;15.20;81.10;;;;;;6153758;23;20405;-83
2024/03/09 11:16:42;;;;;;;1.50;0.90;;;15.20;81.80;;;;;;6137166;23;20479;-83
2024/03/09 11:19:14;;;;;;;3.50;2.03;;;15.30;81.60;;;;;;6159641;23;20499;-82
2024/03/09 11:21:41;;;;;;;1.47;1.00;;;15.30;81.50;;;;;;6137304;23;20456;-82
2024/03/09 11:24:13;;;;;;;1.50;0.90;;;15.40;82.10;;;;;;6163919;23;20456;-80
2024/03/09 11:26:50;;;;;;;1.50;1.20;;;15.50;81.80;;;;;;6142263;23;20457;-81
2024/03/09 11:29:20;;;;;;;1.50;1.00;;;15.50;81.60;;;;;;6154503;23;20499;-82
2024/03/09 11:31:55;;;;;;;1.40;0.90;;;15.60;81.80;;;;;;6139648;23;20935;-81
2024/03/09 11:34:22;;;;;;;1.50;0.90;;;15.60;81.00;;;;;;6152096;23;20413;-80
2024/03/09 11:36:54;;;;;;;3.77;2.27;;;15.60;81.50;;;;;;6135418;23;20531;-81
2024/03/09 11:39:23;;;;;;;1.50;1.10;;;15.70;81.30;;;;;;6153757;23;20396;-84
2024/03/09 11:41:51;;;;;;;3.10;2.30;;;15.90;80.50;;;;;;6141236;23;20444;-82
2024/03/09 11:44:22;;;;;;;1.50;1.00;;;15.80;80.50;;;;;;6152988;23;21022;-82
2024/03/09 11:46:49;;;;;;;1.50;1.10;;;16.00;80.60;;;;;;6135448;23;20477;-80
2024/03/09 11:49:17;;;;;;;1.50;1.00;;;16.20;80.60;;;;;;6163345;23;20842;-80
2024/03/09 11:51:47;;;;;;;1.50;0.93;;;16.30;79.30;;;;;;6137994;23;20504;-80
2024/03/09 11:54:14;;;;;;;1.60;1.30;;;16.20;79.00;;;;;;6154360;23;20424;-81
2024/03/09 11:56:42;;;;;;;1.63;1.50;;;16.20;79.30;;;;;;6144740;23;20484;-80
2024/03/09 11:59:10;;;;;;;1.50;1.30;;;16.30;79.20;;;;;;6152794;23;20420;-80
2024/03/09 12:01:40;;;;;;;1.50;1.00;;;16.30;79.30;;;;;;6139302;23;20453;-82
2024/03/09 12:04:08;;;;;;;1.50;1.10;;;16.30;79.60;;;;;;6154111;23;20428;-80
2024/03/09 12:06:56;;;;;;;7.73;2.67;;;16.40;79.50;;;;;;6137613;23;21085;-81
2024/03/09 12:09:26;;;;;;;1.50;1.00;;;16.50;78.90;;;;;;6142883;23;20521;-80
2024/03/09 12:11:55;;;;;;;1.50;1.00;;;16.50;78.70;;;;;;6134985;23;20452;-81
2024/03/09 12:14:23;;;;;;;1.70;1.53;;;16.50;78.80;;;;;;6162028;23;20497;-80
2024/03/09 12:16:54;;;;;;;1.50;0.90;;;16.50;78.80;;;;;;6143939;23;21016;-81
2024/03/09 12:19:29;;;;;;;1.50;1.10;;;16.50;78.70;;;;;;6165642;23;20663;-82
2024/03/09 12:22:21;;;;;;;1.50;1.20;;;16.60;78.70;;;;;;6143726;23;20457;-81
2024/03/09 12:24:48;;;;;;;1.50;0.90;;;16.60;78.70;;;;;;6164752;23;20847;-79
2024/03/09 12:27:20;;;;;;;1.50;1.00;;;16.80;78.70;;;;;;6141628;23;20472;-79
2024/03/09 12:30:07;;;;;;;1.50;0.90;;;16.80;78.00;;;;;;6165084;23;20456;-80
2024/03/09 12:39:16;;;;;;;1.43;0.90;;;17.00;77.70;;;;;;5850072;24;20441;-80
2024/03/09 12:41:45;;;;;;;1.50;0.90;;;17.00;77.20;;;;;;6067712;23;20444;-78
2024/03/09 12:44:14;;;;;;;1.50;0.97;;;16.90;78.00;;;;;;6152767;23;20417;-79
2024/03/09 12:46:43;;;;;;;1.50;0.90;;;16.90;77.60;;;;;;6137107;23;20820;-81
2024/03/09 12:49:12;;;;;;;1.50;0.90;;;16.90;77.00;;;;;;6152702;23;20451;-78
2024/03/09 12:51:40;;;;;;;1.43;0.90;;;17.00;77.40;;;;;;6142539;23;20476;-79
2024/03/09 12:54:08;;;;;;;1.50;1.10;;;16.90;77.80;;;;;;6152180;23;20749;-81
2024/03/09 12:56:35;;;;;;;1.50;1.10;;;16.80;77.60;;;;;;6134696;23;20488;-80
2024/03/09 12:59:02;;;;;;;1.50;0.90;;;16.70;77.60;;;;;;6151567;23;20441;-80
2024/03/09 13:01:30;;;;;;;1.47;0.90;;;16.70;77.90;;;;;;6144481;23;20859;-80
2024/03/09 13:04:07;;;;;;;1.50;1.00;;;16.80;77.60;;;;;;6154082;23;20488;-79
2024/03/09 13:06:41;;;;;;;1.50;0.90;;;16.90;78.40;;;;;;6143844;23;20444;-79
2024/03/09 13:09:22;;;;;;;1.43;0.90;;;16.90;77.70;;;;;;6150734;23;20436;-81
2024/03/09 13:11:50;;;;;;;1.50;1.00;;;16.90;77.80;;;;;;6140785;23;20457;-80
2024/03/09 13:14:25;;;;;;;2.27;1.73;;;17.10;77.60;;;;;;6159369;23;20425;-80
2024/03/09 13:16:55;;;;;;;1.50;1.10;;;17.10;77.10;;;;;;6134612;23;20511;-79
2024/03/09 13:19:22;;;;;;;1.50;1.20;;;17.10;77.50;;;;;;6150384;23;20417;-79
2024/03/09 13:21:51;;;;;;;1.50;0.90;;;17.20;77.40;;;;;;6134650;23;20452;-79
2024/03/09 13:24:40;;;;;;;1.47;0.93;;;17.20;76.70;;;;;;6149440;23;20463;-79
2024/03/09 13:27:08;;;;;;;1.50;1.00;;;17.40;76.50;;;;;;6138154;23;20463;-82
2024/03/09 13:29:38;;;;;;;1.47;0.90;;;17.30;75.60;;;;;;6151525;23;20449;-79
2024/03/09 13:32:15;;;;;;;1.50;0.90;;;17.30;76.20;;;;;;6134885;23;20467;-79
2024/03/09 13:34:51;;;;;;;1.50;0.90;;;17.30;76.00;;;;;;6149865;23;20461;-81
2024/03/09 13:38:02;;;;;;;1.50;1.00;;;17.40;76.40;;;;;;6136024;23;20448;-79
2024/03/09 13:40:31;;;;;;;1.50;0.90;;;17.50;76.50;;;;;;6137387;23;20417;-79
2024/03/09 13:42:59;;;;;;;1.50;1.00;;;17.50;75.80;;;;;;6135999;23;20523;-80
2024/03/09 13:45:28;;;;;;;1.50;0.90;;;17.50;75.80;;;;;;6161757;23;20448;-77
2024/03/09 13:48:09;;;;;;;1.47;0.90;;;17.50;75.70;;;;;;6131972;23;20520;-79
2024/03/09 13:50:36;;;;;;;1.47;0.90;;;17.40;76.10;;;;;;6147904;23;20433;-79
2024/03/09 13:53:05;;;;;;;1.60;1.33;;;17.30;76.40;;;;;;6134455;23;20759;-80
2024/03/09 13:55:34;;;;;;;1.50;0.90;;;17.30;76.00;;;;;;6149900;23;20437;-79
2024/03/09 13:58:04;;;;;;;2.17;1.97;;;17.30;76.30;;;;;;6134644;23;20503;-80
2024/03/09 14:00:36;;;;;;;1.50;0.90;;;17.20;76.10;;;;;;6150345;23;20592;-80
2024/03/09 14:03:08;;;;;;;1.50;0.90;;;17.10;76.60;;;;;;6136228;23;20531;-79